AirNav   Everest Fuels
 
 1075 users online  

CO57 Rhoads Heliport
Firestone, Colorado, USA

GOING TO FIRESTONE?


FAA INFORMATION EFFECTIVE 08 SEPTEMBER 2022

Location

FAA Identifier: CO57
Lat/Long: 40-06-45.7800N 104-57-06.7800W
40-06.763000N 104-57.113000W
40.1127167,-104.9518833
(estimated)
Elevation: 5000 ft. / 1524 m (estimated)
Variation: 10E (1995)
From city: 1 mile E of FIRESTONE, CO
Time zone: UTC -6 (UTC -7 during Standard Time)
Zip code: 80504

Heliport Operations

Heliport use: Private use. Permission required prior to landing
Activation date: 09/1997
Control tower: no
ARTCC: DENVER CENTER
FSS: DENVER FLIGHT SERVICE STATION
Attendance: CONTINUOUS
Segmented circle: no

Heliport Communications

WX AWOS-3 at EIK (8 nm SW): 133.825 (303-604-4339)
WX AWOS-3 at LMO (10 nm W): 120.0 (303-684-7545)
WX AWOS-3 at BDU (13 nm W): 118.825 (303-541-9540)
WX AWOS-3 at BJC (14 nm SW): PHONE 720-887-8067
WX ASOS at DEN (20 nm SE): PHONE 303-342-1920

Nearby radio navigation aids

VOR radial/distance  VOR name  Freq  Var
BJCr025/14.7JEFFCO VOR/DME115.4011E
DVVr303/19.9MILE HIGH VORTAC114.7008E
DENr315/22.4DENVER VOR/DME117.9008E
FQFr318/29.6FALCON VORTAC116.3011E
GLLr205/29.7GILL VOR/DME114.2013E

Heliport Services

Runway Information

Helipad H1

Dimensions: 40 x 40 ft. / 12 x 12 m
Surface: turf
Traffic pattern: leftleft

Heliport Ownership and Management from official FAA records

Ownership: Privately-owned
Owner: GINA M RHOADS
5264 WCR 16 3/4
LONGMONT, CO 80504
Phone 303-833-4369
Manager: TIM RHOADS
5264 WCR 16 3/4
LONGMONT, CO 80504
Phone 303-775-2191

Additional Remarks

FOR CD CTC DENVER APCH AT 303-342-1916.

Instrument Procedures

There are no published instrument procedures at CO57.

Some nearby airports with instrument procedures:

KEIK - Erie Municipal Airport (8 nm SW)
KLMO - Vance Brand Airport (10 nm W)
KBJC - Rocky Mountain Metro Airport (14 nm SW)
KDEN - Denver International Airport (20 nm SE)
KFNL - Northern Colorado Regional Airport (21 nm N)
 
Loc | Ops | Rwys | IFR | FBO | Links
Com | Nav | Svcs | Stats | Notes

AirBoss

 
Area around CO57 (Rhoads Heliport)
 
Road maps at: MapQuest Bing Google
 
Aerial photo
No photo
 
Sectional chart

 
Airport distance calculator
Flying to Rhoads Heliport? Find the distance to fly.

From to CO57

Sunrise and sunset
Times for 24-Sep-2022
 Local
(UTC-6)
 Zulu
(UTC)
Morning civil twilight06:2312:23
Sunrise06:5012:50
Sunset18:5300:53
Evening civil twilight19:2001:20

Current date and time
Zulu (UTC)  24-Sep-2022 21:52:43
Local (UTC-6)  24-Sep-2022 15:52:43
 
METAR
KEIK 
8nm SW 
242135Z AUTO 08004KT 10SM CLR 28/M05 A3016 RMK AO2 T02781053 PWINO
KLMO 
10nm W 
242135Z AUTO 05008KT 10SM CLR 29/M02 A3018 RMK AO2 T02871017
K1V5 
13nm W 
AWOS 118.825 303-541-9540
No observation available
KBDU 
13nm W 
242135Z AUTO 11003KT 10SM CLR 27/M01 A3017 RMK AO2
KBJC 
14nm SW 
242046Z VRB04KT 10SM SKC 27/M03 A3020
TAF
KBJC 
14nm SW 
241740Z 2418/2518 VRB03KT P6SM SKC FM241900 07007KT P6SM SKC FM250500 35005KT P6SM SKC
NOTAMs
Click for the latest NOTAMs
NOTAMs are issued by the DoD/FAA and will open in a separate window not controlled by AirNav.

 

 
 

Would you like to see your business listed on this page?

 If your business provides an interesting product or service to pilots, flight crews, aircraft, or users of the Rhoads Heliport, you should consider listing it here.  To start the listing process, click on the button below
 
Add a business
 

Other Pages about Rhoads Heliport

Update a link
 
Copyright © AirNav, LLC. All rights reserved. Privacy Policy  Contact